Estación Meteorológica Peña el Pijo (Robertgarden) [ 09/22/18 22:20:25 CEST ]

Fecha Hora Presion(HPa) Temp (°C) Humedad % Rocio (°C) Viento ( m/s) Direccion Lluvia 1Hora(mm) Lluvia 24H(mm) LLuvia Total(mm)
2018-May-31 01:01:47 1009.200 9.6 76 5.5         254.85
2018-May-31 02:01:42 1009.100 9.2 78 5.5         254.85
2018-May-31 03:01:41 1009.100 8.7 79 5.2         254.85
2018-May-31 04:01:39 1008.800 8.2 81 5.1         254.85
2018-May-31 05:01:40 1008.800 7.9 82 5.0         254.85
2018-May-31 06:01:41 1008.800 7.3 83 4.6         254.85
2018-May-31 07:01:46 1009.100 6.9 84 4.4         254.85
2018-May-31 08:01:44 1009.400 8.5 86 6.3         254.85
2018-May-31 09:01:36 1009.500 12.9 85 10.5         254.85
2018-May-31 10:01:34 1009.600 17.9 63 10.7         254.85
2018-May-31 11:01:44 1009.600 21.8 50 10.9         254.85
2018-May-31 12:01:23 1009.700 20.0 47 8.3         254.85
2018-May-31 13:01:50 1009.700 22.2 46 10.0         254.85
2018-May-31 14:01:35 1009.600 20.4 45 8.0         254.85
2018-May-31 15:01:44 1009.600 22.1 44 9.2         254.85
2018-May-31 16:02:08 1009.100 25.9 36 9.6         254.85
2018-May-31 17:01:43 1008.600 26.3 34 9.1         254.85
2018-May-31 18:01:47 1008.800 24.9 36 8.7         254.85
2018-May-31 19:01:43 1008.700 22.3 40 8.1         254.85
2018-May-31 20:01:46 1008.700 21.3 43 8.2         254.85
2018-May-31 21:01:57 1009.500 19.3 49 8.3         254.85
2018-May-31 22:01:53 1010.100 17.9 54 8.4         254.85
2018-May-31 23:01:47 1010.800 16.7 59 8.7         254.85

Temperatura Máxima:26°    Temperatura Mínima:
Presión Máxima:1010.800 Hpa    Presión Mínima:1008.600 Hpa


Volver